KDUC/DUC METAR and TAF weather

Enter ICAO airport designator
Station Type Date Time Source
KDUC METAR 2018/12/10 17:15 UTC NOAA

KDUC 101715Z AUTO 31005KT 10SM CLR 07/M02 A3038 RMK AO2 T00701019


Station Type Date Time Source
KDUC Decoded METAR 2018/12/10 17:15 UTC NOAA

Duncan, Halliburton Field Airport, OK, United States (KDUC) 34-28-15N 097-57-36W
Dec 10, 2018 - 12:15 PM EST / 2018.12.10 1715 UTC
Wind: from the NW (310 degrees) at 6 MPH (5 KT):0
Visibility: 10 mile(s):0
Sky conditions: clear
Temperature: 44.6 F (7.0 C)
Dew Point: 28.6 F (-1.9 C)
Relative Humidity: 53%
Pressure (altimeter): 30.38 in. Hg (1028 hPa)
ob: KDUC 101715Z AUTO 31005KT 10SM CLR 07/M02 A3038 RMK AO2 T00701019
cycle: 17

Station Type Date Time Source
KDUC TAF UTC NOAA

Error!


Example: see airport list